Time;durP1;ratioP1;P1;durP2;ratioP2;P2;SDS_P1;SDS_P2;PMS_P1;PMS_P2;Temp;Humidity;BMP_temperature;BMP_pressure;BME280_temperature;BME280_humidity;BME280_pressure;Samples;Min_cycle;Max_cycle;Signal;HPM_P1;HPM_P2
2022/12/03 00:00:04;;;;;;;45.80;20.50;;;2.70;99.90;;;;;;4982220;28;20231;-57
2022/12/03 00:02:39;;;;;;;47.17;22.33;;;2.60;99.90;;;;;;4987812;28;20298;-58
2022/12/03 00:05:08;;;;;;;42.33;20.53;;;2.60;99.90;;;;;;5018133;28;20191;-58
2022/12/03 00:07:38;;;;;;;42.20;21.23;;;2.60;99.90;;;;;;4991571;28;20657;-57
2022/12/03 00:10:07;;;;;;;41.57;20.23;;;2.60;99.90;;;;;;4979268;28;20204;-57
2022/12/03 00:12:36;;;;;;;46.13;21.47;;;2.60;99.90;;;;;;4981379;28;20198;-57
2022/12/03 00:15:05;;;;;;;41.17;19.93;;;2.60;99.90;;;;;;4978133;28;20191;-56
2022/12/03 00:17:34;;;;;;;42.13;19.90;;;2.50;99.90;;;;;;4987630;28;20199;-58
2022/12/03 00:20:03;;;;;;;43.20;20.03;;;2.50;99.90;;;;;;4976751;28;20688;-57
2022/12/03 00:22:31;;;;;;;45.83;21.07;;;2.60;99.90;;;;;;4982425;28;20228;-57
2022/12/03 00:25:03;;;;;;;43.77;19.13;;;2.50;99.90;;;;;;4978702;28;20204;-57
2022/12/03 00:27:31;;;;;;;42.30;19.70;;;2.60;99.90;;;;;;4968414;28;20196;-58
2022/12/03 00:30:02;;;;;;;40.43;20.57;;;2.60;99.90;;;;;;4987747;28;20215;-58
2022/12/03 00:32:30;;;;;;;44.67;20.93;;;2.50;99.90;;;;;;4989271;28;20211;-58
2022/12/03 00:34:59;;;;;;;43.30;20.27;;;2.50;99.90;;;;;;4984809;28;20210;-57
2022/12/03 00:37:27;;;;;;;38.00;18.80;;;2.50;99.90;;;;;;4976739;28;20195;-58
2022/12/03 00:39:55;;;;;;;44.30;20.03;;;2.50;99.90;;;;;;4971886;28;20195;-57
2022/12/03 00:42:25;;;;;;;40.57;20.13;;;2.50;99.90;;;;;;4978976;28;20654;-58
2022/12/03 00:44:53;;;;;;;38.90;18.40;;;2.50;99.90;;;;;;4978512;28;20210;-58
2022/12/03 00:47:22;;;;;;;43.83;20.30;;;2.50;99.90;;;;;;4979801;28;20207;-58
2022/12/03 00:49:50;;;;;;;42.73;20.33;;;2.50;99.90;;;;;;4983334;28;20278;-57
2022/12/03 00:52:18;;;;;;;39.57;19.50;;;2.50;99.90;;;;;;4977549;28;20196;-57
2022/12/03 00:54:49;;;;;;;42.23;18.97;;;2.50;99.90;;;;;;4981527;28;20188;-57
2022/12/03 00:57:18;;;;;;;38.83;18.73;;;2.50;99.90;;;;;;4978273;28;20323;-57
2022/12/03 00:59:47;;;;;;;39.37;19.60;;;2.50;99.90;;;;;;4979133;28;20195;-57
2022/12/03 01:02:16;;;;;;;37.70;18.53;;;2.50;99.90;;;;;;4980684;28;20230;-57
2022/12/03 01:04:44;;;;;;;39.17;18.57;;;2.50;99.90;;;;;;4977993;28;20678;-58
2022/12/03 01:07:13;;;;;;;39.60;19.07;;;2.50;99.90;;;;;;4976603;28;20191;-57
2022/12/03 01:09:41;;;;;;;40.13;20.13;;;2.50;99.90;;;;;;4994181;28;20201;-57
2022/12/03 01:12:10;;;;;;;41.37;18.73;;;2.50;99.90;;;;;;4985152;28;20187;-57
2022/12/03 01:14:39;;;;;;;38.63;18.43;;;2.50;99.90;;;;;;4975101;28;20206;-57
2022/12/03 01:17:11;;;;;;;36.97;18.83;;;2.50;99.90;;;;;;4970724;28;20239;-58
2022/12/03 01:19:40;;;;;;;35.60;17.80;;;2.50;99.90;;;;;;4980001;28;20218;-58
2022/12/03 01:22:15;;;;;;;37.23;18.33;;;2.50;99.90;;;;;;4976907;28;20223;-57
2022/12/03 01:24:43;;;;;;;39.17;19.43;;;2.50;99.90;;;;;;4981277;28;20277;-57
2022/12/03 01:27:11;;;;;;;37.90;19.70;;;2.50;99.90;;;;;;4990371;28;20659;-58
2022/12/03 01:29:39;;;;;;;35.03;18.20;;;2.50;99.90;;;;;;4997386;28;20660;-58
2022/12/03 01:32:15;;;;;;;33.07;17.20;;;2.50;99.90;;;;;;4983198;28;20187;-57
2022/12/03 01:34:44;;;;;;;38.43;18.47;;;2.50;99.90;;;;;;4986016;28;20210;-57
2022/12/03 01:37:13;;;;;;;38.23;19.10;;;2.50;99.90;;;;;;4979420;28;20256;-57
2022/12/03 01:39:41;;;;;;;36.97;18.77;;;2.50;99.90;;;;;;4978724;28;20203;-57
2022/12/03 01:42:14;;;;;;;38.20;19.27;;;2.50;99.90;;;;;;4981420;28;20196;-57
2022/12/03 01:44:44;;;;;;;39.77;19.83;;;2.50;99.90;;;;;;4982811;28;20224;-57
2022/12/03 01:47:16;;;;;;;37.67;19.53;;;2.50;99.90;;;;;;4981359;28;20206;-57
2022/12/03 01:49:49;;;;;;;39.80;19.87;;;2.50;99.90;;;;;;4984328;28;20650;-58
2022/12/03 01:52:19;;;;;;;37.57;19.20;;;2.50;99.90;;;;;;4981471;28;20214;-57
2022/12/03 01:54:52;;;;;;;37.20;18.30;;;2.50;99.90;;;;;;5011478;28;20711;-57
2022/12/03 01:57:23;;;;;;;38.57;19.33;;;2.50;99.90;;;;;;4989102;28;20199;-57
2022/12/03 01:59:53;;;;;;;34.27;18.30;;;2.40;99.90;;;;;;4987079;28;20649;-57
2022/12/03 02:02:25;;;;;;;36.73;19.17;;;2.50;99.90;;;;;;4980765;28;20211;-57
2022/12/03 02:04:54;;;;;;;39.30;19.20;;;2.40;99.90;;;;;;4985312;28;20203;-57
2022/12/03 02:07:26;;;;;;;34.87;18.57;;;2.40;99.90;;;;;;4981442;28;20195;-57
2022/12/03 02:09:56;;;;;;;38.63;18.90;;;2.50;99.90;;;;;;4982181;28;20586;-57
2022/12/03 02:12:32;;;;;;;34.60;18.63;;;2.40;99.90;;;;;;4985470;28;20203;-57
2022/12/03 02:15:01;;;;;;;41.23;19.20;;;2.50;99.90;;;;;;4985523;28;20198;-58
2022/12/03 02:17:31;;;;;;;37.80;18.97;;;2.50;99.90;;;;;;4980214;28;20813;-58
2022/12/03 02:20:01;;;;;;;36.73;18.67;;;2.50;99.90;;;;;;4984397;28;20545;-57
2022/12/03 02:22:35;;;;;;;38.43;18.37;;;2.50;99.90;;;;;;4983966;28;20203;-57
2022/12/03 02:25:15;;;;;;;37.20;19.10;;;2.40;99.90;;;;;;4982943;28;20209;-58
2022/12/03 02:27:44;;;;;;;37.70;19.30;;;2.50;99.90;;;;;;4979128;28;20222;-57
2022/12/03 02:30:15;;;;;;;35.67;18.30;;;2.40;99.90;;;;;;5003173;28;20195;-57
2022/12/03 02:32:44;;;;;;;40.30;18.77;;;2.40;99.90;;;;;;4973051;28;20196;-56
2022/12/03 02:35:17;;;;;;;37.57;18.63;;;2.40;99.90;;;;;;4983044;28;20190;-58
2022/12/03 02:37:47;;;;;;;37.73;18.90;;;2.40;99.90;;;;;;4976512;28;20207;-58
2022/12/03 02:40:20;;;;;;;37.00;19.97;;;2.40;99.90;;;;;;4982088;28;20198;-58
2022/12/03 02:42:53;;;;;;;37.33;18.83;;;2.40;99.90;;;;;;4981757;28;20657;-57
2022/12/03 02:45:25;;;;;;;35.90;18.57;;;2.40;99.90;;;;;;4983569;28;20664;-57
2022/12/03 02:47:57;;;;;;;37.90;19.07;;;2.40;99.90;;;;;;4984904;28;20199;-57
2022/12/03 02:50:30;;;;;;;35.57;18.57;;;2.40;99.90;;;;;;4981138;28;20689;-57
2022/12/03 02:53:01;;;;;;;38.73;19.03;;;2.40;99.90;;;;;;4979708;28;20198;-57
2022/12/03 02:55:32;;;;;;;35.07;17.63;;;2.40;99.90;;;;;;4978003;28;20203;-57
2022/12/03 02:58:05;;;;;;;37.20;18.97;;;2.40;99.90;;;;;;4981421;28;20227;-57
2022/12/03 03:00:36;;;;;;;38.23;18.53;;;2.40;99.90;;;;;;4977956;28;20637;-57
2022/12/03 03:03:06;;;;;;;36.60;18.53;;;2.40;99.90;;;;;;4986414;28;20254;-58
2022/12/03 03:05:36;;;;;;;36.77;18.67;;;2.40;99.90;;;;;;4978976;28;20199;-57
2022/12/03 03:08:06;;;;;;;35.70;18.60;;;2.40;99.90;;;;;;4977950;28;20199;-57
2022/12/03 03:10:37;;;;;;;36.43;18.03;;;2.40;99.90;;;;;;4982156;28;20194;-58
2022/12/03 03:13:09;;;;;;;37.93;19.03;;;2.40;99.90;;;;;;4982350;28;20286;-57
2022/12/03 03:15:39;;;;;;;37.33;18.63;;;2.40;99.90;;;;;;4980922;28;20696;-58
2022/12/03 03:18:09;;;;;;;34.90;18.83;;;2.40;99.90;;;;;;4982491;28;20191;-57
2022/12/03 03:20:38;;;;;;;33.13;17.83;;;2.40;99.90;;;;;;4975239;28;20195;-57
2022/12/03 03:23:14;;;;;;;33.97;18.10;;;2.40;99.90;;;;;;4975574;28;20211;-58
2022/12/03 03:25:46;;;;;;;34.43;18.53;;;2.40;99.90;;;;;;4981117;28;20190;-57
2022/12/03 03:28:17;;;;;;;36.03;19.97;;;2.40;99.90;;;;;;4977811;28;20286;-57
2022/12/03 03:30:46;;;;;;;40.77;18.70;;;2.40;99.90;;;;;;5005267;28;20210;-57
2022/12/03 03:33:15;;;;;;;35.23;17.77;;;2.40;99.90;;;;;;4976975;28;20195;-57
2022/12/03 03:35:45;;;;;;;37.80;18.97;;;2.40;99.90;;;;;;5002395;28;20289;-58
2022/12/03 03:38:14;;;;;;;38.87;19.77;;;2.40;99.90;;;;;;4982066;28;20203;-58
2022/12/03 03:40:44;;;;;;;38.00;19.20;;;2.40;99.90;;;;;;4978652;28;20199;-58
2022/12/03 03:43:13;;;;;;;35.70;18.53;;;2.40;99.90;;;;;;4984690;28;20195;-57
2022/12/03 03:45:42;;;;;;;35.37;19.53;;;2.40;99.90;;;;;;4977980;28;20211;-58
2022/12/03 03:48:12;;;;;;;36.13;19.17;;;2.40;99.90;;;;;;4985440;28;20191;-57
2022/12/03 03:50:42;;;;;;;35.67;18.83;;;2.40;99.90;;;;;;4980372;28;20206;-57
2022/12/03 03:53:11;;;;;;;40.47;19.63;;;2.40;99.90;;;;;;4984172;28;20200;-57
2022/12/03 03:55:40;;;;;;;34.20;18.30;;;2.30;99.90;;;;;;4975929;28;20258;-57
2022/12/03 03:58:10;;;;;;;38.57;19.43;;;2.30;99.90;;;;;;4987315;28;20210;-57
2022/12/03 04:00:39;;;;;;;39.77;20.20;;;2.30;99.90;;;;;;4986817;28;20214;-57
2022/12/03 04:03:07;;;;;;;36.93;19.30;;;2.30;99.90;;;;;;4979538;28;20207;-57
2022/12/03 04:05:36;;;;;;;40.80;20.10;;;2.30;99.90;;;;;;4992313;28;20206;-57
2022/12/03 04:08:04;;;;;;;39.30;20.07;;;2.30;99.90;;;;;;4981408;28;20206;-57
2022/12/03 04:13:20;;;;;;;35.23;19.10;;;2.30;99.90;;;;;;4983620;28;20210;-57
2022/12/03 04:15:48;;;;;;;37.30;18.33;;;2.30;99.90;;;;;;4981294;28;20665;-57
2022/12/03 04:23:48;;;;;;;35.67;17.90;;;2.30;99.90;;;;;;5010580;28;20685;-57
2022/12/03 04:29:04;;;;;;;38.90;19.90;;;2.40;99.90;;;;;;5001082;28;20192;-58
2022/12/03 04:37:06;;;;;;;39.03;20.00;;;2.30;99.90;;;;;;4999484;28;20198;-58
2022/12/03 04:39:34;;;;;;;39.00;19.80;;;2.30;99.90;;;;;;4984114;28;20198;-57
2022/12/03 04:42:04;;;;;;;39.60;19.30;;;2.30;99.90;;;;;;4980204;28;20203;-58
2022/12/03 04:44:35;;;;;;;39.73;19.87;;;2.30;99.90;;;;;;4978139;28;20210;-57
2022/12/03 04:47:07;;;;;;;42.97;20.23;;;2.30;99.90;;;;;;4977854;28;20210;-57
2022/12/03 04:49:37;;;;;;;39.37;19.47;;;2.30;99.90;;;;;;4986443;28;20202;-57
2022/12/03 04:52:05;;;;;;;37.33;18.97;;;2.40;99.90;;;;;;4981723;28;20203;-57
2022/12/03 04:54:34;;;;;;;36.87;18.50;;;2.40;99.90;;;;;;5013615;28;20880;-57
2022/12/03 04:57:03;;;;;;;41.93;19.63;;;2.30;99.90;;;;;;4978325;28;20202;-57
2022/12/03 04:59:32;;;;;;;39.00;19.17;;;2.30;99.90;;;;;;4982446;28;20256;-57
2022/12/03 05:02:01;;;;;;;40.00;18.77;;;2.40;99.90;;;;;;4980992;28;20204;-57
2022/12/03 05:04:31;;;;;;;40.17;19.10;;;2.30;99.90;;;;;;4983526;28;20569;-58
2022/12/03 05:06:59;;;;;;;36.13;18.30;;;2.40;99.90;;;;;;4990461;28;20221;-58
2022/12/03 05:09:27;;;;;;;43.40;19.60;;;2.40;99.90;;;;;;4988492;28;20304;-57
2022/12/03 05:11:56;;;;;;;39.23;19.27;;;2.40;99.90;;;;;;4990606;28;20695;-57
2022/12/03 05:14:24;;;;;;;39.07;18.90;;;2.40;99.90;;;;;;4989629;28;20194;-58
2022/12/03 05:16:52;;;;;;;36.83;19.47;;;2.40;99.90;;;;;;5014260;28;20227;-58
2022/12/03 05:20:40;;;;;;;37.30;18.90;;;2.40;99.90;;;;;;4986612;28;20226;-57
2022/12/03 05:22:10;;;;;;;41.60;19.87;;;2.40;99.90;;;;;;4986254;28;20191;-58
2022/12/03 05:24:38;;;;;;;37.30;18.57;;;2.40;99.90;;;;;;4989150;28;20579;-57
2022/12/03 05:27:07;;;;;;;40.47;20.40;;;2.50;99.90;;;;;;4988427;28;20195;-57
2022/12/03 05:29:35;;;;;;;38.70;19.77;;;2.40;99.90;;;;;;5026092;28;20199;-64
2022/12/03 05:32:04;;;;;;;39.07;19.83;;;2.40;99.90;;;;;;5052894;28;20196;-64
2022/12/03 05:34:33;;;;;;;39.23;19.83;;;2.40;99.90;;;;;;4990069;28;20203;-64
2022/12/03 05:37:02;;;;;;;37.60;19.20;;;2.40;99.90;;;;;;4986608;28;20669;-64
2022/12/03 05:39:31;;;;;;;38.77;19.13;;;2.40;99.90;;;;;;5011658;28;20201;-64
2022/12/03 05:44:45;;;;;;;37.83;19.43;;;2.40;99.90;;;;;;4982311;28;20223;-64
2022/12/03 05:47:13;;;;;;;41.60;20.07;;;2.40;99.90;;;;;;4981789;28;20199;-64
2022/12/03 05:49:42;;;;;;;43.03;19.90;;;2.40;99.90;;;;;;4985232;28;20205;-64
2022/12/03 05:52:11;;;;;;;42.20;21.37;;;2.40;99.90;;;;;;4987737;28;20199;-64
2022/12/03 05:54:39;;;;;;;43.43;20.13;;;2.40;99.90;;;;;;4979032;28;20203;-64
2022/12/03 05:57:08;;;;;;;42.47;20.93;;;2.40;99.90;;;;;;4983741;28;20662;-65
2022/12/03 05:59:36;;;;;;;38.20;19.30;;;2.40;99.90;;;;;;4984611;28;20191;-64
2022/12/03 06:02:05;;;;;;;42.87;20.80;;;2.40;99.90;;;;;;4980222;28;20526;-64
2022/12/03 06:04:33;;;;;;;40.60;20.57;;;2.40;99.90;;;;;;4985215;28;20683;-64
2022/12/03 06:07:03;;;;;;;40.23;21.33;;;2.40;99.90;;;;;;4995018;28;20195;-64
2022/12/03 06:09:34;;;;;;;38.10;20.23;;;2.40;99.90;;;;;;4993824;28;20519;-64
2022/12/03 06:12:05;;;;;;;44.87;20.53;;;2.40;99.90;;;;;;4983170;28;20545;-64
2022/12/03 06:14:33;;;;;;;46.67;21.20;;;2.40;99.90;;;;;;4983789;28;20211;-64
2022/12/03 06:17:02;;;;;;;43.20;22.13;;;2.40;99.90;;;;;;4986557;28;20243;-64
2022/12/03 06:19:30;;;;;;;42.50;21.57;;;2.40;99.90;;;;;;4985095;28;20202;-64
2022/12/03 06:21:58;;;;;;;41.17;20.50;;;2.40;99.90;;;;;;4984159;28;20644;-64
2022/12/03 06:24:28;;;;;;;44.10;21.07;;;2.40;99.90;;;;;;4998841;28;20194;-64
2022/12/03 06:26:57;;;;;;;49.40;23.03;;;2.30;99.90;;;;;;4985106;28;20203;-64
2022/12/03 06:29:25;;;;;;;45.30;21.40;;;2.40;99.90;;;;;;4980909;28;20539;-64
2022/12/03 06:31:53;;;;;;;48.87;22.87;;;2.30;99.90;;;;;;4981140;28;20191;-64
2022/12/03 06:34:22;;;;;;;50.67;22.90;;;2.30;99.90;;;;;;4982792;28;20206;-64
2022/12/03 06:36:50;;;;;;;46.57;21.73;;;2.20;99.90;;;;;;4986008;28;20195;-64
2022/12/03 06:39:19;;;;;;;49.57;23.37;;;2.20;99.90;;;;;;4986284;28;20614;-64
2022/12/03 06:41:49;;;;;;;50.03;22.50;;;2.20;99.90;;;;;;4988391;28;21162;-64
2022/12/03 06:44:17;;;;;;;48.63;23.20;;;2.10;99.90;;;;;;4982473;28;20683;-64
2022/12/03 06:46:45;;;;;;;50.37;23.43;;;2.10;99.90;;;;;;4981584;28;20222;-64
2022/12/03 06:49:14;;;;;;;48.37;23.20;;;2.10;99.90;;;;;;4981914;28;20203;-64
2022/12/03 06:51:42;;;;;;;52.73;24.10;;;2.10;99.90;;;;;;4988559;28;20191;-64
2022/12/03 06:54:10;;;;;;;52.17;23.83;;;2.10;99.90;;;;;;4987347;28;20195;-64
2022/12/03 06:56:39;;;;;;;49.37;23.53;;;2.10;99.90;;;;;;4991114;28;20199;-64
2022/12/03 06:59:14;;;;;;;51.07;23.10;;;2.10;99.90;;;;;;4991469;28;20241;-64
2022/12/03 07:01:43;;;;;;;51.30;23.10;;;2.10;99.90;;;;;;4980032;28;20281;-64
2022/12/03 07:04:11;;;;;;;49.50;22.77;;;2.10;99.90;;;;;;4982863;28;20586;-64
2022/12/03 07:06:39;;;;;;;53.97;23.83;;;2.10;99.90;;;;;;4982793;28;20219;-64
2022/12/03 07:09:08;;;;;;;50.50;23.33;;;2.10;99.90;;;;;;4987259;28;20202;-64
2022/12/03 07:11:39;;;;;;;54.80;23.40;;;2.10;99.90;;;;;;4989959;28;20198;-64
2022/12/03 07:14:09;;;;;;;53.30;23.43;;;2.10;99.90;;;;;;4985098;28;20187;-64
2022/12/03 07:16:42;;;;;;;54.53;24.57;;;2.10;99.90;;;;;;4975602;28;20239;-64
2022/12/03 07:19:11;;;;;;;55.47;23.10;;;2.10;99.90;;;;;;4990205;28;20299;-64
2022/12/03 07:21:40;;;;;;;48.70;23.30;;;2.20;99.90;;;;;;4981786;28;20207;-64
2022/12/03 07:24:08;;;;;;;54.40;23.93;;;2.20;99.90;;;;;;5000642;28;20187;-64
2022/12/03 07:26:37;;;;;;;50.70;23.70;;;2.20;99.90;;;;;;4992416;28;20211;-64
2022/12/03 07:29:05;;;;;;;54.63;23.73;;;2.30;99.90;;;;;;4987260;28;20645;-64
2022/12/03 07:31:34;;;;;;;53.00;23.80;;;2.30;99.90;;;;;;4982609;28;20225;-64
2022/12/03 07:34:03;;;;;;;50.07;23.50;;;2.30;99.90;;;;;;4988633;28;20188;-65
2022/12/03 07:36:32;;;;;;;49.30;23.03;;;2.30;99.90;;;;;;4977762;28;20734;-65
2022/12/03 07:39:00;;;;;;;51.17;24.13;;;2.30;99.90;;;;;;4980830;28;20201;-64
2022/12/03 07:41:28;;;;;;;52.20;25.03;;;2.30;99.90;;;;;;4980289;28;20200;-64
2022/12/03 07:43:57;;;;;;;55.90;25.77;;;2.30;99.90;;;;;;4979824;28;20724;-64
2022/12/03 07:46:25;;;;;;;55.57;25.03;;;2.40;99.90;;;;;;4999100;28;20230;-64
2022/12/03 07:48:53;;;;;;;52.60;24.47;;;2.30;99.90;;;;;;4986270;28;20197;-65
2022/12/03 07:51:23;;;;;;;49.77;24.10;;;2.30;99.90;;;;;;4984219;28;20203;-64
2022/12/03 07:53:59;;;;;;;52.20;23.90;;;2.40;99.90;;;;;;4977027;28;20207;-64
2022/12/03 07:56:27;;;;;;;51.83;24.27;;;2.30;99.90;;;;;;4980834;28;20219;-64
2022/12/03 07:58:55;;;;;;;54.80;24.10;;;2.40;99.90;;;;;;4980128;28;20195;-64
2022/12/03 08:01:24;;;;;;;56.67;25.00;;;2.50;99.90;;;;;;4979006;28;20285;-64
2022/12/03 08:03:52;;;;;;;51.83;23.37;;;2.50;99.90;;;;;;4973110;28;20214;-64
2022/12/03 08:06:20;;;;;;;51.57;23.77;;;2.50;99.90;;;;;;4981746;28;20234;-64
2022/12/03 08:08:50;;;;;;;56.53;26.00;;;2.60;99.90;;;;;;4976672;28;21947;-64
2022/12/03 08:11:19;;;;;;;51.33;24.13;;;2.50;99.90;;;;;;4984673;28;20215;-64
2022/12/03 08:13:47;;;;;;;51.57;24.63;;;2.50;99.90;;;;;;4973761;28;20202;-64
2022/12/03 08:16:20;;;;;;;53.57;25.07;;;2.50;99.90;;;;;;4971569;28;20241;-64
2022/12/03 08:18:50;;;;;;;49.53;24.47;;;2.60;99.90;;;;;;4979908;28;20199;-64
2022/12/03 08:21:20;;;;;;;50.63;24.63;;;2.50;99.90;;;;;;4981355;28;20199;-64
2022/12/03 08:23:50;;;;;;;51.83;24.60;;;2.60;99.90;;;;;;5004886;28;20195;-64
2022/12/03 08:26:23;;;;;;;50.87;24.07;;;2.60;99.90;;;;;;4978401;28;20249;-64
2022/12/03 08:28:52;;;;;;;51.40;24.07;;;2.60;99.90;;;;;;4960003;28;20230;-64
2022/12/03 08:31:22;;;;;;;53.20;24.50;;;2.60;99.90;;;;;;4972065;28;20649;-64
2022/12/03 08:34:14;;;;;;;59.30;25.17;;;2.70;99.90;;;;;;4980310;28;21360;-64
2022/12/03 08:36:43;;;;;;;53.27;24.67;;;2.70;99.90;;;;;;4984010;28;20224;-64
2022/12/03 08:39:27;;;;;;;54.27;23.80;;;2.70;99.90;;;;;;4980251;28;20199;-64
2022/12/03 08:44:48;;;;;;;57.57;25.60;;;2.70;99.90;;;;;;4970819;28;21438;-64
2022/12/03 08:47:20;;;;;;;52.57;24.63;;;2.80;99.90;;;;;;5001681;28;20706;-64
2022/12/03 08:49:56;;;;;;;51.90;25.23;;;2.70;99.90;;;;;;4992185;28;20206;-64
2022/12/03 08:52:31;;;;;;;60.87;26.50;;;2.70;99.90;;;;;;4998160;28;20206;-64
2022/12/03 08:55:20;;;;;;;71.27;31.77;;;2.70;99.90;;;;;;4976685;28;20197;-65
2022/12/03 08:57:48;;;;;;;72.13;29.53;;;2.70;99.90;;;;;;4982618;28;20211;-65
2022/12/03 09:00:21;;;;;;;60.07;26.97;;;2.70;99.90;;;;;;4975228;28;20219;-64
2022/12/03 09:02:51;;;;;;;54.03;25.93;;;2.70;99.90;;;;;;4982387;28;20191;-65
2022/12/03 09:05:21;;;;;;;59.63;25.23;;;2.70;99.90;;;;;;4977958;28;20190;-64
2022/12/03 09:07:50;;;;;;;57.33;26.10;;;2.70;99.90;;;;;;4972252;28;20215;-64
2022/12/03 09:10:20;;;;;;;57.10;25.30;;;2.80;99.90;;;;;;4973555;28;20222;-64
2022/12/03 09:12:48;;;;;;;61.33;27.20;;;2.80;99.90;;;;;;4985003;28;20685;-64
2022/12/03 09:15:16;;;;;;;58.97;26.53;;;2.80;99.90;;;;;;4975176;28;20187;-64
2022/12/03 09:17:45;;;;;;;59.40;25.37;;;2.90;99.90;;;;;;4982613;28;20183;-64
2022/12/03 09:20:14;;;;;;;54.17;24.67;;;3.00;99.90;;;;;;4978299;28;20641;-65
2022/12/03 09:22:42;;;;;;;54.17;24.47;;;3.00;99.90;;;;;;4988199;28;20218;-64
2022/12/03 09:25:11;;;;;;;58.30;26.83;;;3.00;99.90;;;;;;4986830;28;20961;-64
2022/12/03 09:27:40;;;;;;;54.83;25.17;;;2.90;99.90;;;;;;4975957;28;20220;-64
2022/12/03 09:30:09;;;;;;;54.17;24.83;;;2.90;99.90;;;;;;4986342;28;20199;-64
2022/12/03 09:32:38;;;;;;;54.27;26.20;;;2.90;99.90;;;;;;4981617;28;20561;-64
2022/12/03 09:35:07;;;;;;;47.70;23.53;;;3.00;99.90;;;;;;4979156;28;20745;-64
2022/12/03 09:37:36;;;;;;;56.30;25.57;;;3.00;99.90;;;;;;4980399;28;20203;-64
2022/12/03 09:40:05;;;;;;;49.33;24.83;;;3.00;99.90;;;;;;4982414;28;20198;-65
2022/12/03 09:42:34;;;;;;;49.30;23.50;;;3.10;99.90;;;;;;4985472;28;20621;-65
2022/12/03 09:45:09;;;;;;;50.73;25.00;;;3.10;99.90;;;;;;4967274;28;20661;-64
2022/12/03 09:47:38;;;;;;;55.93;25.47;;;3.10;99.90;;;;;;4997996;28;20210;-64
2022/12/03 09:50:07;;;;;;;57.97;26.17;;;3.10;99.90;;;;;;4988057;28;20772;-64
2022/12/03 09:52:35;;;;;;;52.10;25.23;;;3.10;99.90;;;;;;4984934;28;20203;-64
2022/12/03 09:55:11;;;;;;;55.33;25.63;;;3.10;99.90;;;;;;4988130;28;20207;-64
2022/12/03 09:57:40;;;;;;;52.70;25.40;;;3.10;99.90;;;;;;4997404;28;20202;-64
2022/12/03 10:00:18;;;;;;;55.50;25.63;;;3.10;99.90;;;;;;4991747;28;20256;-64
2022/12/03 10:02:47;;;;;;;51.07;24.50;;;3.20;99.90;;;;;;5018797;28;20202;-64
2022/12/03 10:05:20;;;;;;;55.23;24.90;;;3.20;99.90;;;;;;4978142;28;20195;-64
2022/12/03 10:07:49;;;;;;;56.33;25.60;;;3.30;99.90;;;;;;4986121;28;20711;-64
2022/12/03 10:10:20;;;;;;;51.53;25.07;;;3.20;99.90;;;;;;4983520;28;20226;-64
2022/12/03 10:12:49;;;;;;;53.40;24.13;;;3.20;99.90;;;;;;4983393;28;20195;-64
2022/12/03 10:15:23;;;;;;;58.40;26.63;;;3.30;99.90;;;;;;4987511;28;20199;-64
2022/12/03 10:17:53;;;;;;;52.80;25.53;;;3.30;99.90;;;;;;4986317;28;20531;-64
2022/12/03 10:20:23;;;;;;;48.70;23.60;;;3.30;99.90;;;;;;4982790;28;20549;-65
2022/12/03 10:22:52;;;;;;;49.37;23.70;;;3.30;99.90;;;;;;4979958;28;20277;-64
2022/12/03 10:25:23;;;;;;;49.90;24.47;;;3.40;99.90;;;;;;4984255;28;20215;-64
2022/12/03 10:28:00;;;;;;;54.07;25.50;;;3.40;99.90;;;;;;4981353;28;20222;-64
2022/12/03 10:30:30;;;;;;;49.97;24.87;;;3.50;99.90;;;;;;4987628;28;20207;-64
2022/12/03 10:33:01;;;;;;;50.10;23.93;;;3.50;99.90;;;;;;4985761;28;20199;-64
2022/12/03 10:35:38;;;;;;;51.70;24.50;;;3.50;99.90;;;;;;4986143;28;20221;-64
2022/12/03 10:38:18;;;;;;;49.83;23.67;;;3.60;99.90;;;;;;4987535;28;20190;-65
2022/12/03 10:40:46;;;;;;;47.40;23.53;;;3.60;99.90;;;;;;4990123;28;20212;-64
2022/12/03 10:43:20;;;;;;;49.17;24.03;;;3.70;99.90;;;;;;4987964;28;20203;-64
2022/12/03 10:45:51;;;;;;;48.50;23.73;;;3.70;99.90;;;;;;4993649;28;20209;-64
2022/12/03 10:48:24;;;;;;;49.37;24.43;;;3.80;99.90;;;;;;5002677;28;20736;-64
2022/12/03 10:50:54;;;;;;;48.03;23.77;;;3.80;99.90;;;;;;4989766;28;20236;-64
2022/12/03 10:53:27;;;;;;;51.13;25.07;;;3.70;99.90;;;;;;4988651;28;20202;-64
2022/12/03 10:55:58;;;;;;;51.03;24.50;;;3.60;99.90;;;;;;4984896;28;20247;-65
2022/12/03 10:58:29;;;;;;;52.07;24.73;;;3.70;99.90;;;;;;4987834;28;20191;-64
2022/12/03 11:01:02;;;;;;;53.43;24.57;;;3.70;99.90;;;;;;4979444;28;20195;-64
2022/12/03 11:03:34;;;;;;;48.77;24.40;;;3.60;99.90;;;;;;4977710;28;20912;-65
2022/12/03 11:06:03;;;;;;;50.67;24.00;;;3.60;99.90;;;;;;4978979;28;20717;-64
2022/12/03 11:08:35;;;;;;;55.50;25.53;;;3.70;99.90;;;;;;4978615;28;20219;-64
2022/12/03 11:11:06;;;;;;;54.37;25.50;;;3.60;99.90;;;;;;4982827;28;20190;-65
2022/12/03 11:13:53;;;;;;;58.17;27.07;;;3.50;99.90;;;;;;4978892;28;20202;-64
2022/12/03 11:17:14;;;;;;;52.27;25.73;;;3.50;99.90;;;;;;4978062;28;20245;-64
2022/12/03 11:19:48;;;;;;;54.07;26.63;;;3.50;99.90;;;;;;4972356;28;20202;-64
2022/12/03 11:22:42;;;;;;;51.13;25.17;;;3.60;99.90;;;;;;4991560;28;20301;-64
2022/12/03 11:25:44;;;;;;;49.40;25.20;;;3.60;99.90;;;;;;4975083;28;20558;-64
2022/12/03 11:28:34;;;;;;;57.43;25.57;;;3.60;99.90;;;;;;4992446;28;20747;-65
2022/12/03 11:31:10;;;;;;;52.90;25.73;;;3.60;99.90;;;;;;4953847;28;20211;-64
2022/12/03 11:33:42;;;;;;;54.83;25.80;;;3.50;99.90;;;;;;4977895;28;20230;-64
2022/12/03 11:36:16;;;;;;;56.47;25.70;;;3.50;99.90;;;;;;4992298;28;20294;-64
2022/12/03 11:38:56;;;;;;;56.20;25.80;;;3.50;99.90;;;;;;4979659;28;20195;-64
2022/12/03 11:41:31;;;;;;;52.30;25.53;;;3.50;99.90;;;;;;4991504;28;20704;-64
2022/12/03 11:44:30;;;;;;;52.80;25.33;;;3.60;99.90;;;;;;4978400;28;20285;-64
2022/12/03 11:47:08;;;;;;;50.87;24.27;;;3.50;99.90;;;;;;4975825;28;20806;-64
2022/12/03 11:49:48;;;;;;;49.03;24.53;;;3.50;99.90;;;;;;5019894;28;20213;-64
2022/12/03 11:52:27;;;;;;;53.03;24.50;;;3.50;99.90;;;;;;5000605;28;20194;-65
2022/12/03 11:55:00;;;;;;;46.73;22.87;;;3.60;99.90;;;;;;4985450;28;20201;-64
2022/12/03 11:57:39;;;;;;;50.53;23.97;;;3.50;99.90;;;;;;4982239;28;20198;-64
2022/12/03 12:00:16;;;;;;;50.90;24.30;;;3.60;99.90;;;;;;4984550;28;20203;-65
2022/12/03 12:02:44;;;;;;;49.47;24.43;;;3.70;99.90;;;;;;5015811;28;20199;-65
2022/12/03 12:05:23;;;;;;;49.47;24.20;;;3.70;99.90;;;;;;4983115;28;20671;-65
2022/12/03 12:07:53;;;;;;;48.07;23.30;;;3.70;99.90;;;;;;4986076;28;20214;-64
2022/12/03 12:10:43;;;;;;;44.73;22.53;;;3.70;99.90;;;;;;5007026;28;20665;-64
2022/12/03 12:13:56;;;;;;;45.87;23.03;;;3.70;99.90;;;;;;4986149;28;20222;-64
2022/12/03 12:16:49;;;;;;;43.07;21.97;;;3.70;99.90;;;;;;4978771;28;20238;-64
2022/12/03 12:19:38;;;;;;;45.33;21.90;;;3.70;99.90;;;;;;4969059;28;20233;-64
2022/12/03 12:22:16;;;;;;;48.07;23.17;;;3.70;99.90;;;;;;4982730;28;20282;-64
2022/12/03 12:24:50;;;;;;;46.87;22.87;;;3.90;99.90;;;;;;4989396;28;20261;-65
2022/12/03 12:27:20;;;;;;;50.20;22.80;;;3.90;99.90;;;;;;4981629;28;20229;-65
2022/12/03 12:29:57;;;;;;;42.50;22.53;;;3.90;99.90;;;;;;4981759;28;20622;-64
2022/12/03 12:32:29;;;;;;;52.90;22.97;;;3.80;99.90;;;;;;5011078;28;20207;-64
2022/12/03 12:35:02;;;;;;;48.20;23.37;;;3.70;99.90;;;;;;5019323;28;20187;-64
2022/12/03 12:37:40;;;;;;;48.00;23.07;;;3.70;99.90;;;;;;4983409;28;20191;-65
2022/12/03 12:40:18;;;;;;;49.10;24.07;;;3.80;99.90;;;;;;4992127;28;20259;-64
2022/12/03 12:42:51;;;;;;;50.83;24.43;;;3.70;99.90;;;;;;4988854;28;20194;-65
2022/12/03 12:45:21;;;;;;;47.57;23.47;;;3.70;99.90;;;;;;4977477;28;20199;-65
2022/12/03 12:47:59;;;;;;;46.40;22.10;;;3.70;99.90;;;;;;5039413;28;20203;-65
2022/12/03 12:50:27;;;;;;;47.13;23.30;;;3.70;99.90;;;;;;4964965;28;20199;-65
2022/12/03 12:53:05;;;;;;;45.57;22.53;;;3.70;99.90;;;;;;4974418;28;20811;-65
2022/12/03 12:55:34;;;;;;;45.93;23.43;;;3.70;99.90;;;;;;4973669;28;20290;-64
2022/12/03 12:58:07;;;;;;;44.73;22.33;;;3.70;99.90;;;;;;4986342;28;20665;-64
2022/12/03 13:00:38;;;;;;;48.27;23.80;;;3.60;99.90;;;;;;4981296;28;20198;-64
2022/12/03 13:03:07;;;;;;;46.40;21.90;;;3.60;99.90;;;;;;4984585;28;20214;-64
2022/12/03 13:05:42;;;;;;;45.90;22.03;;;3.60;99.90;;;;;;4972786;28;20301;-65
2022/12/03 13:08:23;;;;;;;45.33;22.60;;;3.60;99.90;;;;;;4980518;28;20211;-65
2022/12/03 13:10:53;;;;;;;46.43;23.73;;;3.60;99.90;;;;;;4988252;28;20685;-65
2022/12/03 13:13:31;;;;;;;51.27;25.03;;;3.60;99.90;;;;;;4974177;28;20187;-64
2022/12/03 13:16:15;;;;;;;52.13;24.33;;;3.60;99.90;;;;;;4984417;28;20239;-64
2022/12/03 13:18:46;;;;;;;47.63;23.73;;;3.60;99.90;;;;;;4979049;28;20347;-64